Time;durP1;ratioP1;P1;durP2;ratioP2;P2;SDS_P1;SDS_P2;PMS_P1;PMS_P2;Temp;Humidity;BMP_temperature;BMP_pressure;BME280_temperature;BME280_humidity;BME280_pressure;Samples;Min_cycle;Max_cycle;Signal;HPM_P1;HPM_P2
2020/12/23 00:01:18;;;;;;;19.30;12.70;;;;;;;-1.11;87.33;100525.48;1787519;80;21364;-66
2020/12/23 00:03:45;;;;;;;27.13;14.60;;;;;;;-1.13;87.32;100520.83;1786469;80;21148;-67
2020/12/23 00:06:13;;;;;;;45.90;16.87;;;;;;;-1.13;87.04;100518.19;1786318;80;20935;-67
2020/12/23 00:08:41;;;;;;;24.73;15.80;;;;;;;-1.12;86.62;100517.22;1754588;81;21626;-65
2020/12/23 00:11:08;;;;;;;25.43;14.33;;;;;;;-1.12;86.13;100512.77;1745057;81;21653;-66
2020/12/23 00:13:36;;;;;;;23.83;12.97;;;;;;;-1.11;85.90;100512.28;1749682;80;21415;-65
2020/12/23 00:16:07;;;;;;;29.43;16.00;;;;;;;-1.14;85.93;100516.05;1771920;80;21592;-66
2020/12/23 00:18:34;;;;;;;36.03;15.20;;;;;;;-1.15;85.96;100518.86;1777154;80;21133;-66
2020/12/23 00:21:02;;;;;;;24.83;11.93;;;;;;;-1.14;86.00;100516.53;1777023;80;21591;-66
2020/12/23 00:23:29;;;;;;;25.80;15.13;;;;;;;-1.15;85.70;100508.30;1776313;80;21130;-66
2020/12/23 00:25:57;;;;;;;31.80;16.93;;;;;;;-1.13;85.78;100511.59;1776202;80;21195;-66
2020/12/23 00:28:25;;;;;;;33.50;17.40;;;;;;;-1.10;85.74;100511.27;1776930;80;21142;-66
2020/12/23 00:30:52;;;;;;;26.53;15.23;;;;;;;-1.07;85.71;100508.34;1777005;80;21129;-68
2020/12/23 00:33:21;;;;;;;26.20;14.30;;;;;;;-1.03;85.70;100502.59;1751617;80;21594;-68
2020/12/23 00:35:49;;;;;;;33.83;12.87;;;;;;;-1.01;85.77;100511.69;1774108;80;21161;-65
2020/12/23 00:38:17;;;;;;;27.67;15.57;;;;;;;-0.99;85.77;100503.11;1777910;79;21481;-68
2020/12/23 00:40:44;;;;;;;36.37;16.17;;;;;;;-0.99;85.55;100490.74;1777449;80;21225;-65
2020/12/23 00:43:12;;;;;;;31.97;15.07;;;;;;;-1.01;85.15;100485.30;1777063;80;21133;-66
2020/12/23 00:45:40;;;;;;;23.73;14.63;;;;;;;-1.04;84.99;100478.50;1772756;80;21097;-66
2020/12/23 00:48:08;;;;;;;17.37;10.93;;;;;;;-1.09;85.04;100466.26;1777046;80;21121;-65
2020/12/23 00:50:35;;;;;;;21.80;12.67;;;;;;;-1.08;84.98;100479.80;1777108;80;21391;-65
2020/12/23 00:53:03;;;;;;;38.27;15.47;;;;;;;-1.09;85.16;100464.11;1777052;80;21190;-66
2020/12/23 00:55:32;;;;;;;30.37;17.30;;;;;;;-1.07;85.28;100478.82;1776251;80;20963;-66
2020/12/23 00:57:59;;;;;;;24.73;14.27;;;;;;;-1.09;85.49;100474.66;1777080;80;21150;-65
2020/12/23 01:00:27;;;;;;;34.97;18.20;;;;;;;-1.07;85.68;100462.98;1777126;80;21150;-65
2020/12/23 01:02:55;;;;;;;30.03;14.83;;;;;;;-0.99;85.53;100468.79;1772276;80;21562;-67
2020/12/23 01:05:22;;;;;;;28.00;15.00;;;;;;;-0.99;85.10;100459.06;1760678;80;21134;-64
2020/12/23 01:07:50;;;;;;;24.10;12.40;;;;;;;-1.03;84.52;100464.81;1777033;80;21098;-65
2020/12/23 01:10:18;;;;;;;21.70;12.17;;;;;;;-1.10;84.54;100462.45;1780364;78;21141;-66
2020/12/23 01:12:45;;;;;;;19.27;12.47;;;;;;;-1.11;84.66;100446.30;1784303;80;21122;-67
2020/12/23 01:15:13;;;;;;;25.63;13.47;;;;;;;-1.10;84.50;100440.84;1782541;80;21379;-66
2020/12/23 01:17:41;;;;;;;20.10;11.67;;;;;;;-1.10;84.51;100443.48;1768878;80;21635;-65
2020/12/23 01:20:09;;;;;;;23.47;11.30;;;;;;;-1.08;84.44;100424.86;1752423;82;21110;-65
2020/12/23 01:22:36;;;;;;;27.40;13.53;;;;;;;-1.10;84.31;100425.00;1726387;82;21148;-65
2020/12/23 01:25:04;;;;;;;17.97;9.97;;;;;;;-1.11;84.34;100424.70;1762618;80;21144;-67
2020/12/23 01:27:31;;;;;;;21.40;11.37;;;;;;;-1.12;84.42;100426.16;1784142;80;21395;-65
2020/12/23 01:29:59;;;;;;;18.43;11.23;;;;;;;-1.12;84.44;100420.39;1784188;80;21118;-67
2020/12/23 01:32:26;;;;;;;21.47;13.07;;;;;;;-1.10;84.44;100410.98;1784211;80;21177;-65
2020/12/23 01:34:54;;;;;;;17.97;8.77;;;;;;;-1.09;84.47;100414.79;1784096;80;21173;-66
2020/12/23 01:37:22;;;;;;;33.80;11.23;;;;;;;-1.13;84.34;100412.13;1784196;79;21547;-66
2020/12/23 01:39:49;;;;;;;11.93;6.33;;;;;;;-1.17;84.46;100406.84;1784280;80;21385;-65
2020/12/23 01:42:17;;;;;;;32.27;11.03;;;;;;;-1.23;84.64;100416.69;1784223;80;21551;-65
2020/12/23 01:44:45;;;;;;;18.13;10.13;;;;;;;-1.28;84.87;100415.02;1783228;80;21026;-65
2020/12/23 01:47:18;;;;;;;17.00;9.73;;;;;;;-1.23;84.89;100405.30;1784262;80;21169;-65
2020/12/23 01:49:47;;;;;;;16.93;9.35;;;;;;;-1.24;84.91;100399.20;1783750;80;21125;-66
2020/12/23 01:52:17;;;;;;;20.50;8.93;;;;;;;-1.25;84.97;100394.09;1784458;80;21368;-63
2020/12/23 01:54:47;;;;;;;21.33;11.77;;;;;;;-1.29;84.88;100385.64;1784200;80;21602;-66
2020/12/23 01:57:15;;;;;;;16.40;9.67;;;;;;;-1.28;84.88;100385.16;1777902;80;21165;-64
2020/12/23 01:59:46;;;;;;;21.90;11.30;;;;;;;-1.29;84.82;100389.60;1751715;81;21615;-68
2020/12/23 02:02:33;;;;;;;22.47;11.17;;;;;;;-1.22;84.75;100379.25;1785118;80;21561;-65
2020/12/23 02:05:07;;;;;;;16.60;10.33;;;;;;;-1.16;84.54;100378.63;1772559;80;21365;-66
2020/12/23 02:07:35;;;;;;;22.80;10.43;;;;;;;-1.08;84.18;100381.30;1784914;80;21547;-65
2020/12/23 02:10:06;;;;;;;15.63;9.57;;;;;;;-1.02;84.10;100381.52;1783601;80;21161;-65
2020/12/23 02:12:34;;;;;;;15.83;9.97;;;;;;;-0.99;83.50;100381.19;1780124;80;21177;-66
2020/12/23 02:15:14;;;;;;;19.87;10.47;;;;;;;-1.06;83.38;100369.63;1767272;80;21145;-65
2020/12/23 02:17:42;;;;;;;18.03;10.03;;;;;;;-1.11;83.41;100372.39;1763357;80;21917;-65
2020/12/23 02:20:13;;;;;;;20.37;8.93;;;;;;;-1.11;83.54;100362.67;1779869;80;21627;-65
2020/12/23 02:22:41;;;;;;;23.30;10.03;;;;;;;-1.07;83.45;100363.17;1779937;80;21406;-65
2020/12/23 02:25:09;;;;;;;23.10;11.27;;;;;;;-1.06;83.48;100361.70;1779796;80;21169;-65
2020/12/23 02:27:37;;;;;;;19.67;10.37;;;;;;;-1.05;83.58;100341.38;1779813;80;21117;-66
2020/12/23 02:30:06;;;;;;;24.73;11.73;;;;;;;-1.05;83.52;100354.09;1779923;80;21342;-66
2020/12/23 02:32:34;;;;;;;18.50;11.63;;;;;;;-1.05;83.66;100355.91;1779992;80;21126;-65
2020/12/23 02:35:02;;;;;;;20.80;12.53;;;;;;;-1.11;84.05;100354.75;1765769;80;21106;-67
2020/12/23 02:37:30;;;;;;;14.97;9.17;;;;;;;-1.11;84.19;100356.56;1755837;80;21105;-64
2020/12/23 02:39:58;;;;;;;26.30;9.47;;;;;;;-1.12;84.33;100353.58;1779866;80;21098;-66
2020/12/23 02:42:26;;;;;;;26.03;12.97;;;;;;;-1.18;84.29;100340.52;1779965;80;21364;-65
2020/12/23 02:44:55;;;;;;;19.67;11.57;;;;;;;-1.17;84.29;100343.98;1779138;80;21642;-64
2020/12/23 02:47:23;;;;;;;22.37;12.90;;;;;;;-1.18;84.43;100339.20;1780360;80;20979;-65
2020/12/23 02:49:51;;;;;;;19.73;11.07;;;;;;;-1.19;84.52;100332.27;1781069;80;21050;-64
2020/12/23 02:52:19;;;;;;;19.93;11.93;;;;;;;-1.21;84.65;100322.86;1780131;80;21102;-66
2020/12/23 02:54:46;;;;;;;17.87;10.50;;;;;;;-1.17;84.54;100331.63;1779944;80;21358;-65
2020/12/23 02:57:14;;;;;;;15.03;11.07;;;;;;;-1.17;84.35;100332.11;1757930;80;21627;-65
2020/12/23 02:59:41;;;;;;;16.97;12.57;;;;;;;-1.16;84.31;100328.00;1774990;80;21610;-65
2020/12/23 03:02:09;;;;;;;17.87;11.17;;;;;;;-1.14;84.13;100331.78;1779674;80;21133;-64
2020/12/23 03:04:36;;;;;;;16.63;9.80;;;;;;;-1.12;84.12;100320.59;1779895;80;21118;-66
2020/12/23 03:07:04;;;;;;;12.20;9.80;;;;;;;-1.09;83.74;100313.66;1777199;80;21196;-65
2020/12/23 03:09:32;;;;;;;11.60;7.17;;;;;;;-1.04;83.52;100316.16;1779994;80;21614;-66
2020/12/23 03:12:00;;;;;;;13.97;9.87;;;;;;;-1.03;83.23;100312.54;1779738;79;21247;-65
2020/12/23 03:14:27;;;;;;;15.83;9.60;;;;;;;-0.99;83.18;100315.19;1779859;80;21109;-66
2020/12/23 03:16:55;;;;;;;15.00;9.47;;;;;;;-0.99;83.12;100310.40;1767078;80;21118;-65
2020/12/23 03:19:23;;;;;;;18.60;12.17;;;;;;;-0.98;83.25;100303.64;1780065;80;21421;-64
2020/12/23 03:21:50;;;;;;;12.10;9.93;;;;;;;-1.02;83.50;100297.04;1779893;80;21654;-65
2020/12/23 03:24:18;;;;;;;16.53;10.83;;;;;;;-1.04;84.00;100296.84;1779538;80;21162;-67
2020/12/23 03:26:46;;;;;;;23.10;14.10;;;;;;;-1.08;84.43;100287.61;1759705;80;21110;-65
2020/12/23 03:29:13;;;;;;;18.40;13.03;;;;;;;-1.08;84.53;100285.80;1780010;80;21153;-65
2020/12/23 03:31:41;;;;;;;18.03;11.13;;;;;;;-1.01;84.72;100282.83;1780798;80;21090;-65
2020/12/23 03:34:09;;;;;;;22.97;12.33;;;;;;;-0.94;84.57;100285.66;1780036;80;21634;-66
2020/12/23 03:36:37;;;;;;;23.93;14.47;;;;;;;-0.99;84.57;100288.79;1771529;80;21162;-65
2020/12/23 03:39:07;;;;;;;19.87;13.57;;;;;;;-1.02;84.60;100285.16;1747400;82;21126;-65
2020/12/23 03:41:35;;;;;;;18.87;11.03;;;;;;;-0.98;84.69;100283.84;1770134;80;21098;-65
2020/12/23 03:44:02;;;;;;;17.40;10.70;;;;;;;-0.94;84.45;100276.42;1772725;79;21582;-66
2020/12/23 03:46:30;;;;;;;18.97;12.17;;;;;;;-0.93;84.08;100287.33;1770632;80;21015;-66
2020/12/23 03:48:58;;;;;;;20.20;12.03;;;;;;;-0.93;84.12;100278.91;1760293;80;20964;-66
2020/12/23 03:51:26;;;;;;;25.50;12.73;;;;;;;-0.89;84.14;100276.28;1779778;80;21093;-65
2020/12/23 03:53:53;;;;;;;18.10;10.77;;;;;;;-0.84;83.98;100276.28;1779828;80;21145;-66
2020/12/23 03:56:21;;;;;;;22.77;10.83;;;;;;;-0.93;83.92;100272.31;1777574;80;21793;-66
2020/12/23 03:58:49;;;;;;;17.00;11.27;;;;;;;-0.96;84.05;100275.26;1747315;82;21153;-65
2020/12/23 04:01:17;;;;;;;16.50;10.77;;;;;;;-0.99;84.18;100268.16;1767968;80;21133;-65
2020/12/23 04:03:45;;;;;;;16.23;9.93;;;;;;;-0.99;84.20;100270.31;1778655;80;21634;-66
2020/12/23 04:06:12;;;;;;;17.67;9.87;;;;;;;-1.01;84.23;100266.99;1779707;80;21515;-67
2020/12/23 04:08:41;;;;;;;19.37;11.73;;;;;;;-0.99;84.16;100260.23;1748936;82;21195;-65
2020/12/23 04:11:09;;;;;;;27.83;11.57;;;;;;;-0.98;84.07;100253.49;1765504;80;21161;-65
2020/12/23 04:13:36;;;;;;;15.87;10.50;;;;;;;-1.02;84.07;100253.48;1777344;80;21094;-66
2020/12/23 04:16:04;;;;;;;26.00;15.60;;;;;;;-1.04;84.22;100253.30;1777377;80;21129;-64
2020/12/23 04:18:32;;;;;;;23.13;15.30;;;;;;;-1.04;84.26;100257.26;1774420;80;21149;-65
2020/12/23 04:21:00;;;;;;;21.87;13.17;;;;;;;-1.05;84.32;100251.15;1765638;80;21399;-68
2020/12/23 04:23:27;;;;;;;17.27;10.40;;;;;;;-1.06;84.44;100244.24;1761297;81;21069;-66
2020/12/23 04:25:55;;;;;;;20.87;12.40;;;;;;;-1.05;84.52;100240.59;1762148;80;21606;-69
2020/12/23 04:28:22;;;;;;;18.70;13.03;;;;;;;-1.03;84.54;100238.62;1767034;80;21549;-65
2020/12/23 04:30:50;;;;;;;23.43;13.60;;;;;;;-1.08;84.66;100223.77;1767046;80;21602;-66
2020/12/23 04:33:18;;;;;;;21.23;12.93;;;;;;;-1.10;84.84;100234.14;1761215;81;21381;-65
2020/12/23 04:35:47;;;;;;;24.77;15.13;;;;;;;-1.10;84.95;100244.70;1735646;80;21157;-65
2020/12/23 04:38:15;;;;;;;31.27;12.57;;;;;;;-1.13;85.04;100233.16;1775059;80;21039;-64
2020/12/23 04:40:43;;;;;;;22.30;12.23;;;;;;;-1.15;85.19;100235.15;1772249;80;21542;-65
2020/12/23 04:43:10;;;;;;;25.27;15.23;;;;;;;-1.20;85.43;100227.68;1777053;80;21142;-65
2020/12/23 04:45:38;;;;;;;21.77;13.53;;;;;;;-1.21;85.59;100226.55;1777138;80;22208;-63
2020/12/23 04:48:07;;;;;;;26.63;15.13;;;;;;;-1.20;85.63;100244.84;1771033;80;21031;-64
2020/12/23 04:50:35;;;;;;;27.27;15.03;;;;;;;-1.21;85.67;100236.61;1768568;80;21142;-64
2020/12/23 04:53:03;;;;;;;24.37;15.90;;;;;;;-1.23;85.91;100244.34;1777010;80;21225;-64
2020/12/23 04:55:31;;;;;;;21.17;15.23;;;;;;;-1.27;86.06;100235.92;1777196;80;21622;-66
2020/12/23 04:57:58;;;;;;;27.03;15.80;;;;;;;-1.25;86.09;100230.01;1770352;80;21546;-64
2020/12/23 05:00:26;;;;;;;24.60;14.20;;;;;;;-1.22;86.02;100239.41;1747372;81;21002;-64
2020/12/23 05:02:54;;;;;;;24.20;13.00;;;;;;;-1.21;86.06;100247.66;1768474;80;21614;-64
2020/12/23 05:05:23;;;;;;;25.37;14.83;;;;;;;-1.23;86.16;100249.62;1777135;80;21771;-65
2020/12/23 05:07:51;;;;;;;23.07;16.43;;;;;;;-1.19;86.20;100243.86;1777052;80;21181;-65
2020/12/23 05:10:19;;;;;;;19.57;14.10;;;;;;;-1.19;86.19;100243.02;1766203;80;22527;-66
2020/12/23 05:12:46;;;;;;;19.90;12.87;;;;;;;-1.20;86.28;100236.92;1782258;80;21109;-68
2020/12/23 05:15:14;;;;;;;24.77;14.27;;;;;;;-1.20;86.38;100232.16;1783958;80;20964;-66
2020/12/23 05:17:52;;;;;;;28.40;15.97;;;;;;;-1.19;86.36;100245.17;1758425;80;21185;-66
2020/12/23 05:20:19;;;;;;;23.00;13.47;;;;;;;-1.20;86.37;100240.87;1756742;80;21118;-64
2020/12/23 05:22:49;;;;;;;33.33;17.17;;;;;;;-1.18;86.48;100242.05;1755282;80;21431;-62
2020/12/23 05:25:18;;;;;;;30.63;17.50;;;;;;;-1.12;86.35;100236.96;1784270;80;21626;-64
2020/12/23 05:27:49;;;;;;;24.77;13.20;;;;;;;-1.12;86.23;100236.96;1783716;80;21114;-66
2020/12/23 05:30:19;;;;;;;26.25;15.72;;;;;;;-1.11;86.16;100233.34;1737112;80;21079;-67
2020/12/23 05:32:50;;;;;;;28.17;15.70;;;;;;;-1.11;86.23;100232.02;1717984;83;21235;-63
2020/12/23 05:35:18;;;;;;;28.10;16.30;;;;;;;-1.11;86.29;100230.70;1670615;82;21217;-66
2020/12/23 05:37:45;;;;;;;33.90;20.43;;;;;;;-1.13;86.43;100233.98;1717855;83;21052;-63
2020/12/23 05:40:13;;;;;;;31.37;18.20;;;;;;;-1.25;86.87;100233.97;1718030;83;21229;-66
2020/12/23 05:42:41;;;;;;;20.87;11.77;;;;;;;-1.27;87.11;100232.45;1681180;85;21678;-64
2020/12/23 05:45:08;;;;;;;28.93;16.13;;;;;;;-1.29;87.37;100233.13;1652477;85;21719;-63
2020/12/23 05:47:38;;;;;;;31.40;17.63;;;;;;;-1.29;87.46;100220.73;1684296;85;21406;-63
2020/12/23 05:50:10;;;;;;;31.80;16.57;;;;;;;-1.23;87.46;100224.55;1717735;83;21012;-63
2020/12/23 05:52:38;;;;;;;;;;;;;;;-1.25;87.56;100226.05;1720486;83;21182;-64
2020/12/23 05:55:18;;;;;;;19.90;14.17;;;;;;;-1.21;87.60;100219.95;1717924;83;20247;-63
2020/12/23 05:57:46;;;;;;;30.63;15.63;;;;;;;-1.22;87.58;100227.03;1717980;83;21672;-63
2020/12/23 06:00:13;;;;;;;31.40;19.50;;;;;;;-1.22;87.63;100221.76;1717888;83;21675;-62
2020/12/23 06:03:08;;;;;;;27.70;16.10;;;;;;;-1.18;87.60;100216.97;1717830;83;21216;-63
2020/12/23 06:05:35;;;;;;;28.97;20.27;;;;;;;-1.18;87.52;100217.80;1717856;83;21126;-64
2020/12/23 06:08:03;;;;;;;36.97;19.20;;;;;;;-1.24;87.66;100223.72;1681168;85;21659;-63
2020/12/23 06:10:34;;;;;;;27.57;16.97;;;;;;;-1.24;87.79;100208.38;1681140;85;21183;-64
2020/12/23 06:13:07;;;;;;;30.20;18.53;;;;;;;-1.22;87.86;100199.33;1684232;84;21635;-63
2020/12/23 06:15:35;;;;;;;;;;;;;;;-1.19;87.72;100204.27;1720583;83;21601;-64
2020/12/23 06:18:02;;;;;;;28.83;14.03;;;;;;;-1.20;87.61;100214.48;1717849;83;20241;-63
2020/12/23 06:20:30;;;;;;;28.73;16.67;;;;;;;-1.24;87.79;100214.48;1681087;85;21103;-62
2020/12/23 06:22:58;;;;;;;31.57;16.30;;;;;;;-1.21;87.78;100207.59;1664102;86;21140;-65
2020/12/23 06:25:26;;;;;;;27.30;17.47;;;;;;;-1.19;87.64;100204.27;1681909;85;21382;-65
2020/12/23 06:27:53;;;;;;;27.97;14.43;;;;;;;-1.19;87.65;100196.84;1681181;84;21165;-66
2020/12/23 06:30:21;;;;;;;30.87;17.73;;;;;;;-1.20;87.64;100205.25;1681242;85;21919;-63
2020/12/23 06:32:50;;;;;;;29.10;18.20;;;;;;;-1.22;87.71;100197.18;1659090;85;21200;-64
2020/12/23 06:35:20;;;;;;;26.37;15.43;;;;;;;-1.25;87.80;100203.63;1717833;82;21605;-63
2020/12/23 06:37:47;;;;;;;29.80;17.40;;;;;;;-1.21;87.92;100194.88;1670401;83;21434;-61
2020/12/23 06:40:17;;;;;;;24.20;13.37;;;;;;;-1.20;87.92;100201.81;1717649;83;21060;-62
2020/12/23 06:42:47;;;;;;;27.97;16.33;;;;;;;-1.20;87.98;100196.54;1692010;83;21643;-61
2020/12/23 06:45:15;;;;;;;31.70;18.23;;;;;;;-1.21;87.94;100186.97;1717792;82;21651;-62
2020/12/23 06:47:43;;;;;;;28.43;14.27;;;;;;;-1.18;87.91;100182.18;1681185;85;21139;-64
2020/12/23 06:50:29;;;;;;;29.13;15.83;;;;;;;-1.19;87.83;100179.20;1681073;84;21642;-61
2020/12/23 06:52:57;;;;;;;27.17;17.07;;;;;;;-1.22;87.85;100164.20;1684079;85;21655;-61
2020/12/23 06:55:46;;;;;;;27.77;16.17;;;;;;;-1.19;87.88;100162.55;1717914;83;21028;-63
2020/12/23 06:58:42;;;;;;;25.93;16.33;;;;;;;-1.19;87.81;100163.86;1717837;83;21138;-61
2020/12/23 07:01:20;;;;;;;29.33;18.60;;;;;;;-1.17;87.83;100165.86;1717910;83;21604;-65
2020/12/23 07:03:48;;;;;;;21.93;14.07;;;;;;;-1.20;87.84;100156.95;1717804;83;21327;-63
2020/12/23 07:06:30;;;;;;;22.07;13.23;;;;;;;-1.21;87.97;100165.36;1677063;85;21182;-72
2020/12/23 07:09:01;;;;;;;28.60;14.93;;;;;;;-1.20;88.02;100184.66;1681827;85;21162;-62
2020/12/23 07:11:32;;;;;;;34.33;18.17;;;;;;;-1.21;88.15;100181.20;1683993;85;21595;-63
2020/12/23 07:13:59;;;;;;;27.07;15.80;;;;;;;-1.17;88.06;100186.48;1718045;83;21588;-63
2020/12/23 07:16:27;;;;;;;31.53;18.73;;;;;;;-1.11;87.98;100191.61;1681276;84;21646;-62
2020/12/23 07:18:55;;;;;;;29.70;15.63;;;;;;;-1.10;87.88;100189.27;1681182;85;21206;-64
2020/12/23 07:21:26;;;;;;;22.50;12.50;;;;;;;-1.09;87.81;100171.96;1680293;85;21151;-62
2020/12/23 07:23:54;;;;;;;33.00;17.27;;;;;;;-1.08;87.56;100180.71;1658688;85;21237;-63
2020/12/23 07:26:24;;;;;;;28.60;15.37;;;;;;;-1.08;87.62;100169.66;1693563;83;21595;-62
2020/12/23 07:28:52;;;;;;;27.10;16.67;;;;;;;-1.03;87.60;100175.28;1671279;83;21494;-63
2020/12/23 07:31:20;;;;;;;28.43;17.47;;;;;;;-1.04;87.55;100176.27;1717767;83;21178;-61
2020/12/23 07:33:48;;;;;;;33.20;16.60;;;;;;;-0.99;87.49;100185.84;1717723;83;21178;-63
2020/12/23 07:36:15;;;;;;;28.67;17.77;;;;;;;-0.95;87.33;100188.48;1681082;84;21633;-63
2020/12/23 07:38:43;;;;;;;24.53;15.30;;;;;;;-0.96;87.24;100186.82;1681122;85;21142;-65
2020/12/23 07:41:12;;;;;;;25.67;14.53;;;;;;;-0.91;87.19;100174.45;1653906;85;21485;-63
2020/12/23 07:43:40;;;;;;;30.10;18.27;;;;;;;-0.91;86.96;100173.95;1681129;85;21163;-64
2020/12/23 07:46:09;;;;;;;40.13;18.43;;;;;;;-0.90;86.96;100170.33;1681185;85;21040;-63
2020/12/23 07:48:37;;;;;;;24.00;13.00;;;;;;;-0.91;86.96;100154.16;1684228;83;21255;-64
2020/12/23 07:51:05;;;;;;;24.63;15.30;;;;;;;-0.92;86.96;100162.26;1718657;83;21735;-62
2020/12/23 07:53:33;;;;;;;23.63;13.77;;;;;;;-0.90;86.96;100162.41;1691949;83;21844;-63
2020/12/23 07:56:05;;;;;;;33.73;17.80;;;;;;;-0.88;87.03;100167.53;1681152;85;21158;-63
2020/12/23 07:58:39;;;;;;;27.70;16.07;;;;;;;-0.83;86.89;100181.07;1681212;85;21040;-62
2020/12/23 08:01:08;;;;;;;24.37;14.57;;;;;;;-0.81;86.80;100183.52;1684121;85;21216;-62
2020/12/23 08:03:36;;;;;;;32.37;18.83;;;;;;;-0.81;86.75;100176.44;1717748;83;21218;-63
2020/12/23 08:06:07;;;;;;;31.07;17.23;;;;;;;-0.81;86.84;100170.32;1717926;83;21850;-63
2020/12/23 08:08:36;;;;;;;31.27;18.43;;;;;;;-0.84;86.93;100165.38;1717740;83;21130;-63
2020/12/23 08:11:10;;;;;;;19.30;12.77;;;;;;;-0.80;86.91;100164.89;1717719;83;21190;-67
2020/12/23 08:13:38;;;;;;;32.57;18.23;;;;;;;-0.80;86.81;100166.70;1705666;81;21587;-63
2020/12/23 08:16:13;;;;;;;20.70;13.87;;;;;;;-0.76;86.80;100160.09;1707412;84;21170;-63
2020/12/23 08:18:42;;;;;;;30.90;14.93;;;;;;;-0.76;86.68;100163.56;1713695;83;22599;-66
2020/12/23 08:21:12;;;;;;;21.53;12.40;;;;;;;-0.74;86.65;100156.31;1704137;84;21159;-64
2020/12/23 08:23:41;;;;;;;29.33;18.10;;;;;;;-0.71;86.52;100149.86;1707371;84;21162;-62
2020/12/23 08:26:10;;;;;;;37.63;20.77;;;;;;;-0.69;86.55;100151.36;1713741;83;21150;-74
2020/12/23 08:28:40;;;;;;;23.10;15.67;;;;;;;-0.63;86.48;100150.70;1704156;84;21137;-63
2020/12/23 08:31:19;;;;;;;26.87;15.50;;;;;;;-0.62;86.12;100152.33;1707403;84;21264;-76
2020/12/23 08:33:47;;;;;;;28.53;16.47;;;;;;;-0.61;86.15;100147.88;1713824;83;21607;-61
2020/12/23 08:36:16;;;;;;;25.13;13.17;;;;;;;-0.62;86.21;100143.09;1692254;84;21643;-62
2020/12/23 08:38:44;;;;;;;31.63;16.53;;;;;;;-0.59;86.10;100148.05;1707451;84;21165;-63
2020/12/23 08:41:18;;;;;;;34.27;19.40;;;;;;;-0.56;86.06;100150.84;1713709;83;21186;-63
2020/12/23 08:43:51;;;;;;;30.60;15.97;;;;;;;-0.52;85.96;100141.59;1704138;83;21373;-61
2020/12/23 08:46:22;;;;;;;40.15;23.87;;;;;;;-0.49;85.84;100140.78;1707383;84;21220;-64
2020/12/23 08:48:52;;;;;;;39.83;21.30;;;;;;;-0.52;85.82;100137.62;1707347;82;21152;-64
2020/12/23 08:51:21;;;;;;;35.00;16.33;;;;;;;-0.54;85.96;100135.66;1713594;83;21177;-63
2020/12/23 08:53:52;;;;;;;26.73;16.63;;;;;;;-0.59;86.46;100125.60;1704205;84;21584;-63
2020/12/23 08:56:28;;;;;;;38.93;18.87;;;;;;;-0.58;87.00;100122.47;1707137;83;21225;-65
2020/12/23 08:59:04;;;;;;;27.57;16.17;;;;;;;-0.59;87.49;100121.64;1713677;83;21138;-66
2020/12/23 09:01:34;;;;;;;35.80;18.63;;;;;;;-0.62;88.84;100118.48;1703966;84;21162;-63
2020/12/23 09:04:10;;;;;;;34.23;18.17;;;;;;;-0.62;89.49;100115.84;1707216;84;21153;-62
2020/12/23 09:06:44;;;;;;;32.70;15.67;;;;;;;-0.62;90.17;100121.95;1713368;83;46119;-62
2020/12/23 09:09:23;;;;;;;44.77;17.42;;;;;;;-0.66;90.76;100119.33;1704095;84;21388;-63
2020/12/23 09:11:57;;;;;;;48.00;22.03;;;;;;;-0.70;91.40;100110.09;1707234;83;21588;-63
2020/12/23 09:14:37;;;;;;;25.68;14.58;;;;;;;-0.74;92.20;100112.74;1720782;83;21125;-65
2020/12/23 09:20:01;;;;;;;25.43;15.47;;;;;;;-0.71;93.75;100099.69;1847324;76;26374;-63
2020/12/23 09:22:40;;;;;;;34.07;19.07;;;;;;;-0.78;94.13;100102.68;1816466;79;21169;-64
2020/12/23 09:25:25;;;;;;;37.43;19.50;;;;;;;-0.85;94.90;100084.03;1814258;79;22139;-64
2020/12/23 09:28:11;;;;;;;27.30;15.13;;;;;;;-0.81;95.49;100087.15;1817145;78;20987;-63
2020/12/23 09:30:54;;;;;;;34.90;17.73;;;;;;;-0.83;96.17;100082.06;1817192;79;20924;-64
2020/12/23 09:33:23;;;;;;;30.80;16.67;;;;;;;-0.82;96.50;100080.24;1801549;79;21023;-64
2020/12/23 09:36:04;;;;;;;21.07;11.73;;;;;;;-0.79;96.78;100087.83;1783343;80;21156;-65
2020/12/23 09:38:36;;;;;;;36.40;20.92;;;;;;;-0.82;97.08;100075.80;1783540;80;21182;-64
2020/12/23 09:41:06;;;;;;;35.93;18.77;;;;;;;-0.83;97.44;100074.14;1783326;80;21551;-64
2020/12/23 09:43:35;;;;;;;20.77;12.00;;;;;;;-0.81;97.81;100066.86;1783338;80;20990;-61
2020/12/23 09:46:08;;;;;;;35.17;20.90;;;;;;;-0.80;98.02;100060.59;1783326;80;21043;-63
2020/12/23 09:48:35;;;;;;;39.23;20.07;;;;;;;-0.78;98.09;100056.47;1783319;80;21131;-64
2020/12/23 09:51:03;;;;;;;27.63;14.93;;;;;;;-0.81;98.18;100054.14;1783342;79;21258;-62
2020/12/23 09:53:33;;;;;;;35.67;19.70;;;;;;;-0.76;98.51;100053.15;1763450;81;21108;-67
2020/12/23 09:56:05;;;;;;;29.97;16.50;;;;;;;-0.75;98.59;100049.52;1765980;81;21009;-63
2020/12/23 09:58:33;;;;;;;27.67;17.63;;;;;;;-0.77;98.70;100042.28;1734405;81;21212;-64
2020/12/23 10:01:01;;;;;;;36.50;18.57;;;;;;;-0.73;98.90;100035.67;1766662;81;21141;-63
2020/12/23 10:03:30;;;;;;;25.87;15.10;;;;;;;-0.69;99.05;100040.44;1763714;81;21790;-62
2020/12/23 10:05:57;;;;;;;23.83;12.40;;;;;;;-0.64;99.21;100032.84;1780378;77;21181;-68
2020/12/23 10:08:25;;;;;;;31.27;19.13;;;;;;;-0.63;99.07;100034.98;1799015;79;21110;-68
2020/12/23 10:10:53;;;;;;;30.57;18.47;;;;;;;-0.62;99.05;100025.55;1785043;79;21124;-65
2020/12/23 10:13:22;;;;;;;26.80;16.27;;;;;;;-0.57;99.14;100021.91;1786992;79;21161;-68
2020/12/23 10:15:50;;;;;;;29.00;17.97;;;;;;;-0.54;98.99;100022.08;1784846;79;21387;-70
2020/12/23 10:18:17;;;;;;;24.23;14.30;;;;;;;-0.54;99.03;100021.58;1816882;78;21117;-67
2020/12/23 10:20:45;;;;;;;26.57;17.17;;;;;;;-0.52;98.79;100020.07;1817066;79;21641;-65
2020/12/23 10:23:13;;;;;;;27.80;17.63;;;;;;;-0.47;98.95;100017.74;1808323;78;21105;-65
2020/12/23 10:25:41;;;;;;;28.57;17.37;;;;;;;-0.44;98.76;100018.74;1812076;79;21531;-66
2020/12/23 10:28:09;;;;;;;30.63;17.63;;;;;;;-0.40;98.69;100000.72;1789820;77;21187;-70
2020/12/23 10:30:37;;;;;;;27.10;16.87;;;;;;;-0.41;98.29;99994.61;1723296;82;21617;-64
2020/12/23 10:33:11;;;;;;;29.93;18.33;;;;;;;-0.44;98.04;99991.00;1729816;81;21247;-67
2020/12/23 10:35:40;;;;;;;29.77;19.63;;;;;;;-0.39;98.26;99989.99;1734311;81;21586;-65
2020/12/23 10:38:08;;;;;;;26.67;14.93;;;;;;;-0.38;98.02;99987.65;1719919;82;21159;-62
2020/12/23 10:40:37;;;;;;;31.07;18.57;;;;;;;-0.42;97.83;99985.03;1731658;82;21207;-63
2020/12/23 10:43:06;;;;;;;29.13;18.00;;;;;;;-0.39;97.91;99990.48;1784288;80;21189;-61
2020/12/23 10:45:35;;;;;;;35.30;20.73;;;;;;;-0.34;97.96;99988.98;1784275;80;21105;-62
2020/12/23 10:48:03;;;;;;;37.10;20.33;;;;;;;-0.33;97.86;99980.52;1784211;80;21145;-63
2020/12/23 10:50:30;;;;;;;29.30;18.30;;;;;;;-0.32;97.67;99976.89;1784281;80;21212;-63
2020/12/23 10:52:58;;;;;;;31.20;18.23;;;;;;;-0.33;97.56;99985.31;1798746;79;21364;-66
2020/12/23 10:55:26;;;;;;;27.47;16.80;;;;;;;-0.37;97.71;99980.55;1816405;79;21595;-64
2020/12/23 10:57:54;;;;;;;26.20;18.50;;;;;;;-0.36;97.93;99971.63;1816480;79;21820;-65
2020/12/23 11:00:21;;;;;;;31.27;17.93;;;;;;;-0.39;97.98;99970.67;1816358;79;21062;-65
2020/12/23 11:02:49;;;;;;;25.90;16.67;;;;;;;-0.38;98.11;99966.52;1816449;79;21122;-64
2020/12/23 11:05:19;;;;;;;22.90;14.67;;;;;;;-0.41;98.37;99962.91;1816482;79;21186;-65
2020/12/23 11:07:47;;;;;;;23.43;14.07;;;;;;;-0.43;98.72;99962.23;1816392;78;21138;-67
2020/12/23 11:10:15;;;;;;;30.47;16.77;;;;;;;-0.38;99.08;99959.11;1816635;79;21126;-65
2020/12/23 11:12:43;;;;;;;27.27;14.90;;;;;;;-0.42;99.21;99956.46;1790544;79;21810;-64
2020/12/23 11:15:12;;;;;;;34.83;21.20;;;;;;;-0.40;99.37;99950.52;1795647;79;21137;-65
2020/12/23 11:17:39;;;;;;;29.30;19.20;;;;;;;-0.38;99.72;99960.44;1816336;79;21294;-63
2020/12/23 11:20:07;;;;;;;30.03;21.13;;;;;;;-0.35;100.00;99950.33;1812291;79;21118;-63
2020/12/23 11:22:35;;;;;;;29.07;19.33;;;;;;;-0.31;100.00;99948.98;1811886;79;21545;-64
2020/12/23 11:25:05;;;;;;;27.13;15.53;;;;;;;-0.28;100.00;99953.08;1811903;79;21046;-65